地図

経路データ

SID SEASON NUMBER BASIN SUBBASIN NAME ISO_TIME NATURE LAT LON WMO_WIND WMO_PRES WMO_AGENCY TRACK_TYPE DIST2LAND LANDFALL IFLAG USA_AGENCY USA_ATCF_ID USA_LAT USA_LON USA_RECORD USA_STATUS USA_WIND USA_PRES USA_SSHS USA_R34_NE USA_R34_SE USA_R34_SW USA_R34_NW USA_R50_NE USA_R50_SE USA_R50_SW USA_R50_NW USA_R64_NE USA_R64_SE USA_R64_SW USA_R64_NW USA_POCI USA_ROCI USA_RMW USA_EYE TOKYO_LAT TOKYO_LON TOKYO_GRADE TOKYO_WIND TOKYO_PRES TOKYO_R50_DIR TOKYO_R50_LONG TOKYO_R50_SHORT TOKYO_R30_DIR TOKYO_R30_LONG TOKYO_R30_SHORT TOKYO_LAND CMA_LAT CMA_LON CMA_CAT CMA_WIND CMA_PRES HKO_LAT HKO_LON HKO_CAT HKO_WIND HKO_PRES NEWDELHI_LAT NEWDELHI_LON NEWDELHI_GRADE NEWDELHI_WIND NEWDELHI_PRES NEWDELHI_CI NEWDELHI_DP NEWDELHI_POCI REUNION_LAT REUNION_LON REUNION_TYPE REUNION_WIND REUNION_PRES REUNION_TNUM REUNION_CI REUNION_RMW REUNION_R34_NE REUNION_R34_SE REUNION_R34_SW REUNION_R34_NW REUNION_R50_NE REUNION_R50_SE REUNION_R50_SW REUNION_R50_NW REUNION_R64_NE REUNION_R64_SE REUNION_R64_SW REUNION_R64_NW BOM_LAT BOM_LON BOM_TYPE BOM_WIND BOM_PRES BOM_TNUM BOM_CI BOM_RMW BOM_R34_NE BOM_R34_SE BOM_R34_SW BOM_R34_NW BOM_R50_NE BOM_R50_SE BOM_R50_SW BOM_R50_NW BOM_R64_NE BOM_R64_SE BOM_R64_SW BOM_R64_NW BOM_ROCI BOM_POCI BOM_EYE BOM_POS_METHOD BOM_PRES_METHOD NADI_LAT NADI_LON NADI_CAT NADI_WIND NADI_PRES WELLINGTON_LAT WELLINGTON_LON WELLINGTON_WIND WELLINGTON_PRES DS824_LAT DS824_LON DS824_STAGE DS824_WIND DS824_PRES TD9636_LAT TD9636_LON TD9636_STAGE TD9636_WIND TD9636_PRES TD9635_LAT TD9635_LON TD9635_WIND TD9635_PRES TD9635_ROCI NEUMANN_LAT NEUMANN_LON NEUMANN_CLASS NEUMANN_WIND NEUMANN_PRES MLC_LAT MLC_LON MLC_CLASS MLC_WIND MLC_PRES USA_GUST BOM_GUST BOM_GUST_PER REUNION_GUST REUNION_GUST_PER USA_SEAHGT USA_SEARAD_NE USA_SEARAD_SE USA_SEARAD_SW USA_SEARAD_NW STORM_SPEED STORM_DIR
1948294N14126 1948 79 WP MM NOT_NAMED 1948-10-19 12:00:00 NR 13.8000 125.800 main 151 129 __________O___ -1 13.8000 125.800 2 6 301
1948294N14126 1948 79 WP MM NOT_NAMED 1948-10-19 15:00:00 NR 13.9434 125.554 main 129 99 __________P___ -1 13.9434 125.554 2 6 301
1948294N14126 1948 79 WP MM NOT_NAMED 1948-10-19 18:00:00 NR 14.1094 125.266 main 99 70 __________P___ -1 14.1094 125.266 2 7 301
1948294N14126 1948 79 WP MM NOT_NAMED 1948-10-19 21:00:00 NR 14.3208 124.895 main 70 59 __________P___ -1 14.3208 124.895 2 10 300
1948294N14126 1948 79 WP MM NOT_NAMED 1948-10-20 00:00:00 NR 14.6000 124.400 main 68 67 __________O___ -1 14.6000 124.400 2 13 300
1948294N14126 1948 79 WP MM NOT_NAMED 1948-10-20 03:00:00 NR 14.9575 123.751 main 116 114 __________P___ -1 14.9575 123.751 2 16 299
1948294N14126 1948 79 WP MM NOT_NAMED 1948-10-20 06:00:00 NR 15.3578 122.974 main 123 39 __________P___ -1 15.3578 122.974 2 18 297
1948294N14126 1948 79 WP MM NOT_NAMED 1948-10-20 09:00:00 NR 15.7541 122.110 main 24 0 __________P___ -1 15.7541 122.110 2 19 293
1948294N14126 1948 79 WP MM NOT_NAMED 1948-10-20 12:00:00 NR 16.1000 121.200 main 0 0 __________O___ -1 16.1000 121.200 2 19 288
1948294N14126 1948 79 WP MM NOT_NAMED 1948-10-20 15:00:00 NR 16.3500 120.246 main 21 11 __________P___ -1 16.3500 120.246 2 19 283
1948294N14126 1948 79 WP MM NOT_NAMED 1948-10-20 18:00:00 NR 16.5420 119.267 main 57 57 __________P___ -1 16.5420 119.267 2 19 280
1948294N14126 1948 79 WP MM NOT_NAMED 1948-10-20 21:00:00 NR 16.6877 118.330 main 166 166 __________P___ -1 16.6877 118.330 2 17 279
1948294N14126 1948 79 WP MM NOT_NAMED 1948-10-21 00:00:00 NR 16.8000 117.500 main 251 251 __________O___ -1 16.8000 117.500 2 14 279
1948294N14126 1948 79 WP MM NOT_NAMED 1948-10-21 03:00:00 NR 16.9014 116.859 main 315 315 __________P___ -1 16.9014 116.859 2 11 279
1948294N14126 1948 79 WP MM NOT_NAMED 1948-10-21 06:00:00 NR 16.9771 116.329 main 379 379 __________P___ -1 16.9771 116.329 2 10 278
1948294N14126 1948 79 WP MM NOT_NAMED 1948-10-21 09:00:00 NR 17.0394 115.859 main 420 420 __________P___ -1 17.0394 115.859 2 9 278
1948294N14126 1948 79 WP MM NOT_NAMED 1948-10-21 12:00:00 NR 17.1000 115.400 main 474 474 __________O___ -1 17.1000 115.400 2 9 278
1948294N14126 1948 79 WP MM NOT_NAMED 1948-10-21 15:00:00 NR 17.1678 114.910 main 491 448 __________P___ -1 17.1678 114.910 2 10 278
1948294N14126 1948 79 WP MM NOT_NAMED 1948-10-21 18:00:00 NR 17.2423 114.391 main 448 396 __________P___ -1 17.2423 114.391 2 10 279
1948294N14126 1948 79 WP MM NOT_NAMED 1948-10-21 21:00:00 NR 17.3206 113.851 main 396 334 __________P___ -1 17.3206 113.851 2 11 279
1948294N14126 1948 79 WP MM NOT_NAMED 1948-10-22 00:00:00 NR 17.4000 113.300 main 334 __________O___ -1 17.4000 113.300 2 11 279

デジタル台風データ・検索

IBTrACS Databaseについて

本データベースは、米国NOAAが公開する1842年以降の世界の熱帯低気圧のベストトラックデータアーカイブInternational Best Track Archive for Climate Stewardship (IBTrACS)を、ウェブで閲覧しやすい形式に変換したものです。

最終更新日:2021-10-25